createdAt,value
2018-09-20T03:38:55.237Z,99.99
2018-09-20T03:39:55.231Z,99.99
2018-09-20T03:41:47.191Z,99.99
2018-09-20T03:42:47.182Z,99.99
2018-09-20T03:44:39.082Z,99.73
2018-09-20T03:45:39.099Z,99.99
2018-09-20T03:47:31.035Z,99.99
2018-09-20T03:48:31.028Z,99.99
2018-09-20T03:50:22.968Z,99.58
2018-09-20T03:51:22.964Z,98.57
2018-09-20T03:53:14.891Z,99.77
2018-09-20T03:54:14.906Z,99.87
2018-09-20T03:56:06.840Z,99.20
2018-09-20T03:57:06.827Z,99.05
2018-09-20T03:58:58.752Z,99.44
2018-09-20T03:59:58.775Z,98.67
2018-09-20T04:01:50.708Z,98.67
2018-09-20T04:02:50.693Z,98.67
2018-09-20T04:04:42.633Z,97.90
2018-09-20T04:05:42.647Z,97.90
2018-09-20T04:07:34.611Z,96.66
2018-09-20T04:08:34.601Z,96.85
2018-09-20T04:10:26.552Z,96.37
2018-09-20T04:11:26.539Z,95.79
2018-09-20T04:13:18.455Z,95.60
2018-09-20T04:14:18.471Z,95.31
2018-09-20T04:16:10.417Z,95.21
2018-09-20T04:17:10.399Z,95.51
2018-09-20T04:19:02.335Z,95.41
2018-09-20T04:20:02.346Z,95.12
2018-09-20T04:21:54.300Z,95.12
2018-09-20T04:22:54.291Z,95.60
2018-09-20T04:24:46.211Z,95.21
2018-09-20T04:25:46.233Z,95.79
2018-09-20T04:27:38.175Z,94.93
2018-09-20T04:28:38.168Z,94.26
2018-09-20T04:30:30.136Z,94.17
2018-09-20T04:31:30.131Z,94.74
2018-09-20T04:33:22.055Z,94.17
2018-09-20T04:34:22.062Z,95.21
2018-09-20T04:36:14.524Z,94.35
2018-09-20T04:37:14.515Z,93.78
2018-09-20T04:39:06.484Z,94.26
2018-09-20T04:40:06.447Z,94.26
2018-09-20T04:41:58.414Z,94.54
2018-09-20T04:42:58.411Z,93.68
2018-09-20T04:43:58.427Z,93.59
2018-09-20T04:44:58.441Z,94.07
2018-09-20T04:45:58.477Z,94.26
2018-09-20T04:46:58.484Z,94.17
2018-09-20T04:47:58.504Z,94.54
2018-09-20T04:48:58.518Z,94.35
2018-09-20T04:49:58.538Z,95.12
2018-09-20T04:50:58.558Z,95.21
2018-09-20T04:51:58.576Z,95.21
2018-09-20T04:52:58.605Z,95.70
2018-09-20T04:53:58.612Z,95.51
2018-09-20T04:54:58.639Z,95.70
2018-09-20T04:55:58.652Z,95.41
2018-09-20T04:56:58.675Z,95.60
2018-09-20T04:57:58.690Z,95.79
2018-09-20T04:58:58.714Z,95.79
2018-09-20T04:59:58.770Z,96.37
2018-09-20T05:00:58.752Z,96.18
2018-09-20T05:01:58.765Z,95.41
2018-09-20T05:02:58.786Z,95.31
2018-09-20T05:03:58.805Z,95.03
2018-09-20T05:04:58.829Z,95.31
2018-09-20T05:05:58.841Z,95.70
2018-09-20T05:06:58.862Z,95.21
2018-09-20T05:07:58.891Z,95.51
2018-09-20T05:08:58.901Z,95.41
2018-09-20T05:09:58.930Z,95.51
2018-09-20T05:10:58.938Z,96.56
2018-09-20T05:11:59.004Z,95.98
2018-09-20T05:12:58.982Z,95.12
2018-09-20T05:13:58.993Z,95.21
2018-09-20T05:14:59.014Z,95.70
2018-09-20T05:15:59.035Z,95.41
2018-09-20T05:16:59.052Z,95.03
2018-09-20T05:17:59.068Z,95.51
2018-09-20T05:18:59.090Z,94.64
2018-09-20T05:19:59.108Z,95.12
2018-09-20T05:20:59.127Z,95.41
2018-09-20T05:21:59.147Z,93.97
2018-09-20T05:22:59.173Z,95.03
2018-09-20T05:23:59.185Z,95.51
2018-09-20T05:24:59.205Z,94.45
2018-09-20T05:25:59.229Z,93.30
2018-09-20T05:26:59.243Z,94.07
2018-09-20T05:27:59.268Z,93.68
2018-09-20T05:28:59.285Z,93.49
2018-09-20T05:29:59.309Z,92.15
2018-09-20T05:30:59.318Z,93.49
2018-09-20T05:31:59.340Z,92.82
2018-09-20T05:32:59.363Z,93.30
2018-09-20T05:33:59.377Z,93.11
2018-09-20T05:34:59.398Z,93.01
2018-09-20T05:35:59.423Z,92.54
2018-09-20T05:36:59.434Z,92.44
2018-09-20T05:37:59.456Z,92.54
2018-09-20T05:38:59.472Z,92.34
2018-09-20T05:39:59.496Z,93.30
2018-09-20T05:40:59.508Z,93.78
2018-09-20T05:41:59.539Z,93.11
2018-09-20T05:42:59.547Z,92.91
2018-09-20T05:43:59.567Z,93.49
2018-09-20T05:44:59.587Z,93.68
2018-09-20T05:45:59.612Z,93.78
2018-09-20T05:46:59.629Z,93.97
2018-09-20T05:47:59.645Z,94.07
2018-09-20T05:48:59.672Z,93.59
2018-09-20T05:49:59.683Z,93.49
2018-09-20T05:50:59.704Z,94.35
2018-09-20T05:51:59.722Z,93.11
2018-09-20T05:52:59.747Z,93.49
2018-09-20T05:53:59.769Z,92.54
2018-09-20T05:54:59.825Z,92.63
2018-09-20T05:55:59.802Z,93.40
2018-09-20T05:56:59.829Z,92.72
2018-09-20T05:57:59.838Z,93.88
2018-09-20T05:58:59.857Z,92.54
2018-09-20T05:59:59.882Z,93.21
2018-09-20T06:00:59.900Z,94.26
2018-09-20T06:01:59.915Z,94.07
2018-09-20T06:02:59.935Z,93.97
2018-09-20T06:03:59.956Z,94.54
2018-09-20T06:04:59.970Z,94.74
2018-09-20T06:06:00.010Z,95.03
2018-09-20T06:07:00.021Z,95.65
2018-09-20T06:08:00.029Z,95.07
2018-09-20T06:09:00.240Z,95.17
2018-09-20T06:10:00.082Z,95.51
2018-09-20T06:11:00.115Z,95.46
2018-09-20T06:12:00.155Z,96.32
2018-09-20T06:13:00.155Z,97.86
2018-09-20T06:14:00.151Z,98.53
2018-09-20T06:15:00.173Z,98.62
2018-09-20T06:16:00.200Z,99.68
2018-09-20T06:17:00.251Z,99.29
2018-09-20T06:18:00.227Z,99.68
2018-09-20T06:19:00.278Z,99.99
2018-09-20T06:20:00.374Z,99.99
2018-09-20T06:21:00.380Z,99.99
2018-09-20T06:22:00.339Z,99.99
2018-09-20T06:23:00.439Z,99.99
2018-09-20T06:24:00.414Z,99.99
2018-09-20T06:25:00.408Z,99.99
2018-09-20T06:26:00.454Z,99.99
2018-09-20T06:27:00.446Z,99.99
2018-09-20T06:30:01.528Z,99.99
